createdAt,value
2023-04-09T00:00:00.998Z,8.27
2023-04-09T00:02:29.553Z,7.57
2023-04-09T00:04:57.952Z,7.70
2023-04-09T00:07:26.318Z,7.93
2023-04-09T00:09:56.544Z,7.60
2023-04-09T00:12:24.837Z,7.33
2023-04-09T00:14:53.336Z,7.83
2023-04-09T00:17:22.083Z,7.90
2023-04-09T00:19:50.491Z,8.10
2023-04-09T00:22:19.000Z,8.40
2023-04-09T00:24:47.314Z,9.50
2023-04-09T00:27:17.033Z,10.40
2023-04-09T00:29:45.437Z,9.80
2023-04-09T00:32:13.771Z,9.07
2023-04-09T00:34:42.224Z,9.47
2023-04-09T00:37:10.539Z,7.90
2023-04-09T00:39:38.841Z,8.10
2023-04-09T00:42:07.193Z,7.90
2023-04-09T00:44:37.033Z,7.83
2023-04-09T00:47:05.527Z,8.43
2023-04-09T00:49:34.464Z,8.23
2023-04-09T00:52:03.107Z,7.70
2023-04-09T00:54:31.587Z,8.80
2023-04-09T00:57:01.017Z,8.83
2023-04-09T00:59:29.722Z,9.40
2023-04-09T01:01:59.426Z,8.93
2023-04-09T01:04:27.949Z,9.50
2023-04-09T01:07:05.565Z,9.70
2023-04-09T01:09:38.313Z,8.33
2023-04-09T01:12:13.648Z,8.57
2023-04-09T01:14:50.866Z,9.97
2023-04-09T01:17:25.798Z,9.00
2023-04-09T01:20:01.484Z,9.20
2023-04-09T01:22:39.975Z,8.87
2023-04-09T01:25:21.027Z,9.07
2023-04-09T01:28:01.186Z,10.13
2023-04-09T01:30:31.840Z,10.00
2023-04-09T01:33:00.376Z,10.17
2023-04-09T01:35:30.937Z,10.70
2023-04-09T01:38:00.177Z,11.13
2023-04-09T01:40:28.777Z,10.23
2023-04-09T01:42:59.389Z,10.23
2023-04-09T01:45:27.959Z,10.03
2023-04-09T01:47:58.030Z,10.53
2023-04-09T01:50:26.543Z,10.03
2023-04-09T01:52:55.292Z,10.60
2023-04-09T01:55:23.610Z,10.47
2023-04-09T01:57:51.995Z,10.80
2023-04-09T02:00:20.927Z,9.30
2023-04-09T02:02:56.635Z,10.77
2023-04-09T02:05:30.260Z,9.50
2023-04-09T02:08:03.872Z,9.60
2023-04-09T02:10:34.445Z,9.13
2023-04-09T02:13:05.848Z,9.97
2023-04-09T02:15:37.756Z,8.60
2023-04-09T02:18:06.818Z,9.20
2023-04-09T02:20:36.558Z,9.70
2023-04-09T02:23:04.884Z,10.23
2023-04-09T02:25:33.391Z,9.77
2023-04-09T02:28:01.768Z,9.77
2023-04-09T02:30:30.062Z,10.50
2023-04-09T02:32:58.433Z,10.40
2023-04-09T02:35:26.765Z,10.90
2023-04-09T02:37:56.423Z,11.47
2023-04-09T02:40:24.724Z,11.53
2023-04-09T02:42:53.889Z,10.70
2023-04-09T02:45:22.498Z,9.60
2023-04-09T02:47:50.995Z,9.77
2023-04-09T02:50:19.470Z,9.80
2023-04-09T02:52:51.455Z,10.53
2023-04-09T02:55:22.203Z,9.43
2023-04-09T02:57:50.593Z,10.33
2023-04-09T03:00:18.899Z,10.77
2023-04-09T03:02:47.440Z,10.40
2023-04-09T03:05:15.856Z,11.00
2023-04-09T03:07:44.161Z,11.57
2023-04-09T03:10:12.922Z,12.27
2023-04-09T03:12:44.578Z,11.73
2023-04-09T03:15:13.088Z,11.00
2023-04-09T03:17:41.763Z,10.27
2023-04-09T03:20:10.669Z,12.10
2023-04-09T03:22:40.972Z,10.67
2023-04-09T03:25:21.504Z,10.23
2023-04-09T03:27:55.124Z,11.20
2023-04-09T03:30:45.355Z,11.03
2023-04-09T03:33:14.963Z,10.70
2023-04-09T03:35:51.365Z,11.57
2023-04-09T03:38:25.866Z,12.30
2023-04-09T03:40:54.444Z,10.60
2023-04-09T03:43:24.199Z,11.87
2023-04-09T03:45:54.526Z,10.80
2023-04-09T03:48:28.193Z,12.20
2023-04-09T03:50:58.207Z,11.47
2023-04-09T03:53:34.650Z,11.37
2023-04-09T03:56:07.273Z,11.03
2023-04-09T03:58:38.174Z,10.60
2023-04-09T04:01:08.674Z,10.67
2023-04-09T04:03:46.567Z,10.77
2023-04-09T04:06:25.956Z,11.60
2023-04-09T04:09:06.474Z,10.73
2023-04-09T04:11:49.085Z,11.13
2023-04-09T04:14:19.938Z,11.17
2023-04-09T04:16:53.827Z,10.77
2023-04-09T04:19:27.264Z,11.87
2023-04-09T04:21:56.941Z,11.13
2023-04-09T04:24:25.724Z,11.03
2023-04-09T04:26:54.281Z,12.20
2023-04-09T04:29:24.945Z,10.43
2023-04-09T04:31:58.706Z,10.47
2023-04-09T04:34:32.718Z,9.97
2023-04-09T04:37:10.747Z,9.63
2023-04-09T04:39:39.058Z,9.57
2023-04-09T04:42:16.920Z,10.13
2023-04-09T04:44:47.345Z,9.97
2023-04-09T04:47:33.913Z,9.50
2023-04-09T04:50:02.399Z,10.57
2023-04-09T04:52:38.915Z,11.20
2023-04-09T04:55:08.206Z,10.67
2023-04-09T04:57:36.682Z,11.47
2023-04-09T05:00:08.644Z,11.17
2023-04-09T05:02:38.411Z,10.73
2023-04-09T05:05:29.850Z,10.47
2023-04-09T05:07:59.309Z,10.07
2023-04-09T05:10:27.760Z,10.10
2023-04-09T05:12:59.182Z,11.20
2023-04-09T05:15:39.116Z,10.17
2023-04-09T05:18:08.585Z,10.67
2023-04-09T05:20:37.886Z,10.63
2023-04-09T05:23:10.285Z,9.93
2023-04-09T05:25:42.816Z,11.10
2023-04-09T05:28:22.925Z,10.60
2023-04-09T05:30:59.626Z,10.30
2023-04-09T05:33:28.376Z,10.20
2023-04-09T05:35:56.768Z,11.30
2023-04-09T05:38:25.064Z,10.37
2023-04-09T05:40:58.178Z,10.60
2023-04-09T05:43:26.878Z,12.40
2023-04-09T05:45:55.248Z,10.60
2023-04-09T05:48:25.338Z,10.60
2023-04-09T05:50:55.814Z,10.80
2023-04-09T05:53:27.477Z,11.03
2023-04-09T05:55:56.027Z,10.30
2023-04-09T05:58:29.947Z,11.30
2023-04-09T06:00:59.779Z,10.70
2023-04-09T06:03:29.934Z,10.40
2023-04-09T06:05:58.384Z,10.60
2023-04-09T06:08:26.744Z,10.80
2023-04-09T06:10:55.182Z,11.37
2023-04-09T06:13:23.468Z,11.90
2023-04-09T06:15:52.486Z,10.67
2023-04-09T06:18:20.863Z,11.67
2023-04-09T06:20:50.581Z,11.60
2023-04-09T06:23:18.913Z,10.50
2023-04-09T06:25:47.236Z,9.40
2023-04-09T06:28:15.718Z,9.60
2023-04-09T06:30:44.022Z,9.93
2023-04-09T06:33:12.404Z,11.73
2023-04-09T06:35:40.827Z,11.53
2023-04-09T06:38:11.125Z,11.07
2023-04-09T06:40:40.436Z,10.20
2023-04-09T06:43:09.621Z,9.80
2023-04-09T06:45:44.885Z,11.27
2023-04-09T06:48:13.536Z,10.30
2023-04-09T06:50:42.028Z,10.30
2023-04-09T06:53:11.707Z,11.70
2023-04-09T06:55:40.127Z,12.50
2023-04-09T06:58:08.504Z,9.37
2023-04-09T07:00:36.878Z,10.00
2023-04-09T07:03:08.106Z,8.40
2023-04-09T07:05:37.189Z,7.90
2023-04-09T07:08:05.793Z,8.60
2023-04-09T07:10:35.488Z,7.70
2023-04-09T07:13:03.882Z,6.80
2023-04-09T07:15:32.305Z,6.97
2023-04-09T07:18:01.649Z,7.10
2023-04-09T07:20:30.073Z,6.90
2023-04-09T07:22:58.427Z,7.17
2023-04-09T07:25:26.792Z,6.03
2023-04-09T07:27:57.039Z,6.10
2023-04-09T07:30:25.852Z,6.90
2023-04-09T07:32:54.413Z,5.80
2023-04-09T07:35:23.057Z,5.87
2023-04-09T07:37:51.359Z,6.40
2023-04-09T07:40:20.050Z,6.00
2023-04-09T07:42:48.687Z,6.70
2023-04-09T07:45:18.396Z,6.90
2023-04-09T07:47:46.793Z,5.87
2023-04-09T07:50:15.063Z,7.30
2023-04-09T07:52:43.389Z,7.20
2023-04-09T07:55:11.756Z,7.77
2023-04-09T07:57:40.138Z,7.87
2023-04-09T08:00:09.563Z,7.73
2023-04-09T08:02:46.950Z,7.30
2023-04-09T08:05:15.586Z,8.40
2023-04-09T08:07:44.054Z,10.40
2023-04-09T08:10:15.265Z,8.83
2023-04-09T08:12:43.894Z,9.80
2023-04-09T08:15:12.431Z,9.43
2023-04-09T08:17:41.077Z,9.10
2023-04-09T08:20:12.795Z,10.50
2023-04-09T08:22:42.284Z,9.53
2023-04-09T08:25:10.724Z,9.13
2023-04-09T08:27:39.902Z,10.07
2023-04-09T08:30:09.715Z,9.80
2023-04-09T08:32:40.694Z,8.97
2023-04-09T08:35:11.317Z,9.03
2023-04-09T08:37:39.702Z,9.73
2023-04-09T08:40:09.984Z,9.33
2023-04-09T08:42:42.978Z,8.60
2023-04-09T08:45:12.838Z,8.87
2023-04-09T08:47:43.311Z,9.80
2023-04-09T08:50:16.227Z,8.57
2023-04-09T08:52:47.106Z,9.10
2023-04-09T08:55:15.442Z,9.73
2023-04-09T08:57:44.432Z,8.70
2023-04-09T09:00:13.984Z,9.00
2023-04-09T09:03:03.400Z,8.90
2023-04-09T09:05:41.014Z,8.77
2023-04-09T09:08:10.426Z,8.73
2023-04-09T09:10:40.206Z,8.30
2023-04-09T09:13:19.741Z,8.70
2023-04-09T09:15:50.522Z,9.27
2023-04-09T09:18:19.768Z,9.17
2023-04-09T09:20:49.969Z,9.17
2023-04-09T09:23:18.274Z,8.50
2023-04-09T09:25:46.823Z,8.50
2023-04-09T09:28:15.358Z,9.30
2023-04-09T09:30:43.949Z,8.60
2023-04-09T09:33:13.245Z,7.90
2023-04-09T09:35:54.361Z,9.03
2023-04-09T09:38:22.886Z,8.40
2023-04-09T09:40:52.531Z,7.90
2023-04-09T09:43:21.589Z,8.83
2023-04-09T09:45:50.397Z,9.20
2023-04-09T09:48:18.758Z,11.27
2023-04-09T09:50:48.549Z,9.17
2023-04-09T09:53:23.726Z,8.60
2023-04-09T09:55:54.707Z,8.40
2023-04-09T09:58:28.784Z,8.23
2023-04-09T10:00:58.665Z,7.10
2023-04-09T10:03:28.973Z,7.90
2023-04-09T10:05:58.925Z,7.97
2023-04-09T10:08:30.594Z,7.07
2023-04-09T10:10:59.266Z,8.03
2023-04-09T10:13:33.936Z,7.53
2023-04-09T10:16:03.028Z,7.90
2023-04-09T10:18:33.527Z,7.20
2023-04-09T10:21:06.383Z,7.23
2023-04-09T10:23:40.136Z,7.13
2023-04-09T10:26:08.868Z,6.50
2023-04-09T10:28:38.651Z,6.27
2023-04-09T10:31:08.886Z,7.03
2023-04-09T10:33:39.292Z,7.30
2023-04-09T10:36:12.250Z,6.80
2023-04-09T10:38:46.891Z,5.80
2023-04-09T10:41:17.718Z,6.80
2023-04-09T10:43:48.301Z,5.27
2023-04-09T10:46:32.318Z,4.97
2023-04-09T10:49:14.573Z,5.50
2023-04-09T10:51:46.874Z,5.30
2023-04-09T10:54:47.783Z,4.60
2023-04-09T10:57:19.105Z,4.07
2023-04-09T10:59:48.731Z,4.40
2023-04-09T11:03:01.788Z,3.87
2023-04-09T11:05:34.833Z,3.87
2023-04-09T11:08:06.805Z,4.10
2023-04-09T11:10:37.350Z,3.87
2023-04-09T11:13:06.165Z,4.20
2023-04-09T11:15:36.900Z,4.20
2023-04-09T11:18:06.980Z,4.90
2023-04-09T11:20:36.999Z,4.17
2023-04-09T11:23:06.254Z,4.30
2023-04-09T11:25:36.648Z,3.43
2023-04-09T11:28:06.156Z,3.20
2023-04-09T11:30:35.698Z,3.50
2023-04-09T11:33:04.303Z,3.00
2023-04-09T11:35:35.667Z,3.00
2023-04-09T11:38:09.579Z,3.13
2023-04-09T11:40:47.883Z,3.53
2023-04-09T11:43:17.803Z,3.23
2023-04-09T11:45:48.666Z,3.00
2023-04-09T11:48:18.651Z,2.73
2023-04-09T11:50:47.724Z,2.70
2023-04-09T11:53:23.798Z,2.80
2023-04-09T11:55:54.464Z,2.80
2023-04-09T11:58:24.778Z,3.03
2023-04-09T12:00:56.288Z,2.40
2023-04-09T12:03:30.891Z,2.50
2023-04-09T12:06:02.684Z,2.30
2023-04-09T12:08:31.357Z,2.50
2023-04-09T12:11:10.146Z,2.73
2023-04-09T12:13:42.891Z,2.10
2023-04-09T12:16:11.439Z,2.60
2023-04-09T12:18:40.198Z,2.20
2023-04-09T12:21:08.536Z,2.43
2023-04-09T12:23:36.874Z,2.60
2023-04-09T12:26:06.694Z,2.30
2023-04-09T12:28:35.061Z,2.37
2023-04-09T12:31:03.600Z,2.50
2023-04-09T12:33:32.330Z,2.23
2023-04-09T12:36:00.764Z,2.47
2023-04-09T12:38:29.124Z,2.47
2023-04-09T12:40:57.497Z,2.10
2023-04-09T12:43:27.230Z,2.23
2023-04-09T12:45:55.947Z,2.30
2023-04-09T12:48:24.312Z,2.67
2023-04-09T12:50:52.682Z,2.40
2023-04-09T12:53:20.978Z,2.23
2023-04-09T12:55:49.289Z,2.60
2023-04-09T12:58:17.693Z,2.10
2023-04-09T13:00:47.543Z,1.93
2023-04-09T13:03:16.848Z,2.40
2023-04-09T13:05:45.389Z,2.10
2023-04-09T13:08:13.783Z,2.10
2023-04-09T13:10:42.129Z,2.10
2023-04-09T13:13:13.024Z,2.90
2023-04-09T13:15:43.616Z,3.07
2023-04-09T13:18:14.459Z,3.60
2023-04-09T13:20:42.851Z,3.30
2023-04-09T13:23:11.158Z,3.37
2023-04-09T13:25:39.502Z,3.57
2023-04-09T13:28:08.535Z,3.73
2023-04-09T13:30:37.093Z,4.40
2023-04-09T13:33:05.638Z,3.30
2023-04-09T13:35:35.353Z,3.60
2023-04-09T13:38:03.739Z,3.20
2023-04-09T13:40:32.051Z,3.57
2023-04-09T13:43:00.353Z,3.70
2023-04-09T13:45:28.680Z,3.40
2023-04-09T13:47:56.979Z,3.23
2023-04-09T13:50:25.313Z,3.20
2023-04-09T13:52:55.053Z,3.10
2023-04-09T13:55:23.339Z,3.07
2023-04-09T13:57:51.642Z,2.50
2023-04-09T14:00:20.851Z,2.83
2023-04-09T14:02:49.283Z,2.70
2023-04-09T14:05:17.716Z,2.80
2023-04-09T14:07:46.005Z,3.13
2023-04-09T14:10:15.945Z,3.23
2023-04-09T14:12:47.241Z,3.20
2023-04-09T14:15:15.585Z,3.30
2023-04-09T14:17:44.850Z,2.93
2023-04-09T14:20:13.397Z,3.50
2023-04-09T14:22:43.038Z,3.00
2023-04-09T14:25:11.601Z,3.77
2023-04-09T14:27:41.340Z,3.50
2023-04-09T14:30:11.879Z,3.00
2023-04-09T14:32:40.504Z,3.30
2023-04-09T14:35:09.762Z,3.20
2023-04-09T14:37:40.904Z,3.03
2023-04-09T14:40:10.223Z,3.60
2023-04-09T14:42:38.536Z,3.23
2023-04-09T14:45:09.117Z,2.63
2023-04-09T14:47:37.440Z,2.83
2023-04-09T14:50:06.219Z,2.97
2023-04-09T14:52:34.805Z,2.90
2023-04-09T14:55:03.198Z,2.80
2023-04-09T14:57:31.615Z,2.70
2023-04-09T15:00:00.071Z,2.40
2023-04-09T15:02:29.887Z,2.40
2023-04-09T15:04:58.408Z,2.23
2023-04-09T15:07:26.928Z,3.00
2023-04-09T15:09:55.290Z,4.30
2023-04-09T15:12:23.675Z,2.63
2023-04-09T15:14:52.185Z,2.47
2023-04-09T15:17:20.729Z,2.37
2023-04-09T15:19:50.816Z,2.10
2023-04-09T15:22:19.150Z,2.00
2023-04-09T15:24:47.437Z,2.67
2023-04-09T15:27:16.063Z,2.23
2023-04-09T15:29:44.458Z,2.40
2023-04-09T15:32:12.903Z,1.90
2023-04-09T15:34:41.261Z,2.43
2023-04-09T15:37:11.109Z,2.40
2023-04-09T15:39:39.506Z,2.53
2023-04-09T15:42:10.283Z,3.13
2023-04-09T15:44:40.110Z,2.17
2023-04-09T15:47:08.834Z,2.33
2023-04-09T15:49:37.733Z,2.10
2023-04-09T15:52:06.324Z,2.40
2023-04-09T15:54:36.078Z,2.33
2023-04-09T15:57:05.103Z,2.10
2023-04-09T15:59:33.461Z,2.47
2023-04-09T16:02:01.858Z,1.90
2023-04-09T16:04:30.165Z,2.00
2023-04-09T16:06:58.556Z,1.90
2023-04-09T16:09:26.974Z,2.40
2023-04-09T16:11:56.872Z,2.03
2023-04-09T16:14:25.365Z,2.40
2023-04-09T16:16:53.878Z,2.13
2023-04-09T16:19:22.362Z,1.90
2023-04-09T16:21:50.628Z,2.10
2023-04-09T16:24:19.076Z,2.13
2023-04-09T16:26:47.933Z,2.13
2023-04-09T16:29:17.833Z,2.37
2023-04-09T16:31:46.160Z,2.30
2023-04-09T16:34:14.584Z,2.30
2023-04-09T16:36:42.923Z,2.23
2023-04-09T16:39:11.541Z,2.33
2023-04-09T16:41:40.091Z,2.30
2023-04-09T16:44:08.502Z,2.50
2023-04-09T16:46:38.248Z,1.90
2023-04-09T16:49:06.829Z,2.40
2023-04-09T16:51:35.292Z,2.23
2023-04-09T16:54:03.674Z,2.30
2023-04-09T16:56:32.957Z,2.90
2023-04-09T16:59:01.402Z,2.60
2023-04-09T17:01:29.841Z,2.40
2023-04-09T17:04:00.820Z,2.30
2023-04-09T17:06:29.429Z,2.80
2023-04-09T17:08:58.003Z,2.10
2023-04-09T17:11:26.534Z,2.10
2023-04-09T17:13:55.095Z,2.40
2023-04-09T17:16:23.499Z,2.10
2023-04-09T17:18:52.093Z,2.10
2023-04-09T17:21:22.194Z,2.17
2023-04-09T17:23:50.689Z,1.97
2023-04-09T17:26:19.001Z,1.90
2023-04-09T17:28:47.765Z,2.10
2023-04-09T17:31:16.525Z,2.00
2023-04-09T17:33:48.061Z,2.17
2023-04-09T17:36:18.782Z,2.00
2023-04-09T17:38:48.565Z,2.90
2023-04-09T17:41:16.896Z,2.93
2023-04-09T17:43:46.139Z,2.37
2023-04-09T17:46:14.439Z,2.90
2023-04-09T17:48:42.840Z,2.33
2023-04-09T17:51:16.371Z,2.20
2023-04-09T17:53:44.731Z,2.70
2023-04-09T17:56:17.599Z,2.40
2023-04-09T17:58:46.528Z,2.37
2023-04-09T18:01:14.960Z,2.60
2023-04-09T18:03:45.746Z,2.20
2023-04-09T18:06:15.735Z,2.53
2023-04-09T18:08:44.744Z,2.60
2023-04-09T18:11:15.606Z,2.53
2023-04-09T18:13:45.535Z,2.60
2023-04-09T18:16:14.005Z,3.00
2023-04-09T18:18:42.694Z,2.70
2023-04-09T18:21:11.033Z,2.77
2023-04-09T18:23:40.379Z,3.17
2023-04-09T18:26:08.794Z,2.90
2023-04-09T18:28:37.100Z,3.00
2023-04-09T18:31:07.212Z,2.80
2023-04-09T18:33:35.560Z,2.50
2023-04-09T18:36:04.048Z,2.70
2023-04-09T18:38:32.502Z,2.60
2023-04-09T18:41:01.659Z,2.27
2023-04-09T18:43:30.018Z,3.23
2023-04-09T18:45:58.378Z,2.40
2023-04-09T18:48:28.063Z,3.00
2023-04-09T18:50:56.472Z,2.83
2023-04-09T18:53:25.206Z,2.50
2023-04-09T18:55:53.552Z,2.70
2023-04-09T18:58:21.857Z,3.33
2023-04-09T19:00:51.760Z,2.70
2023-04-09T19:03:20.559Z,3.30
2023-04-09T19:05:50.467Z,3.13
2023-04-09T19:08:18.866Z,2.80
2023-04-09T19:10:47.820Z,3.13
2023-04-09T19:13:16.906Z,2.80
2023-04-09T19:15:45.967Z,3.50
2023-04-09T19:18:14.816Z,3.10
2023-04-09T19:20:43.381Z,3.03
2023-04-09T19:23:13.387Z,3.07
2023-04-09T19:25:42.897Z,2.93
2023-04-09T19:28:11.616Z,2.80
2023-04-09T19:30:40.120Z,2.73
2023-04-09T19:33:08.676Z,2.87
2023-04-09T19:35:40.649Z,5.40
2023-04-09T19:38:09.804Z,3.43
2023-04-09T19:40:39.654Z,2.80
2023-04-09T19:43:08.091Z,3.47
2023-04-09T19:45:37.531Z,2.80
2023-04-09T19:48:06.070Z,2.70
2023-04-09T19:50:37.351Z,2.83
2023-04-09T19:53:06.188Z,3.03
2023-04-09T19:55:35.088Z,2.60
2023-04-09T19:58:05.765Z,3.13
2023-04-09T20:00:35.090Z,3.10
2023-04-09T20:03:05.843Z,2.60
2023-04-09T20:05:34.378Z,3.10
2023-04-09T20:08:02.734Z,3.40
2023-04-09T20:10:31.151Z,3.03
2023-04-09T20:12:59.468Z,2.83
2023-04-09T20:15:29.313Z,3.00
2023-04-09T20:17:57.724Z,3.63
2023-04-09T20:20:26.300Z,2.73
2023-04-09T20:22:56.473Z,3.23
2023-04-09T20:25:25.754Z,2.70
2023-04-09T20:27:55.225Z,3.37
2023-04-09T20:30:23.895Z,3.17
2023-04-09T20:32:53.675Z,2.97
2023-04-09T20:35:23.162Z,3.03
2023-04-09T20:37:54.359Z,2.70
2023-04-09T20:40:23.118Z,3.10
2023-04-09T20:42:53.524Z,4.60
2023-04-09T20:45:22.779Z,3.57
2023-04-09T20:47:52.072Z,3.43
2023-04-09T20:50:22.481Z,3.13
2023-04-09T20:52:51.330Z,3.63
2023-04-09T20:55:20.819Z,3.13
2023-04-09T20:57:49.861Z,3.13
2023-04-09T21:00:18.725Z,3.17
2023-04-09T21:02:48.012Z,2.70
2023-04-09T21:05:23.550Z,2.83
2023-04-09T21:07:55.826Z,2.60
2023-04-09T21:10:24.912Z,2.80
2023-04-09T21:12:53.798Z,2.97
2023-04-09T21:15:22.493Z,3.00
2023-04-09T21:17:51.574Z,3.00
2023-04-09T21:20:20.871Z,2.67
2023-04-09T21:22:50.018Z,2.57
2023-04-09T21:25:20.846Z,2.93
2023-04-09T21:27:49.857Z,2.97
2023-04-09T21:30:19.008Z,3.00
2023-04-09T21:32:47.470Z,2.80
2023-04-09T21:35:16.646Z,3.60
2023-04-09T21:37:45.192Z,2.70
2023-04-09T21:40:14.783Z,3.10
2023-04-09T21:42:46.011Z,2.60
2023-04-09T21:45:14.536Z,2.93
2023-04-09T21:47:42.997Z,2.90
2023-04-09T21:50:12.598Z,3.30
2023-04-09T21:52:41.859Z,3.13
2023-04-09T21:55:10.815Z,2.90
2023-04-09T21:57:39.359Z,3.17
2023-04-09T22:00:11.086Z,2.90
2023-04-09T22:02:40.326Z,3.40
2023-04-09T22:05:09.447Z,2.80
2023-04-09T22:07:39.903Z,3.10
2023-04-09T22:10:10.060Z,2.70
2023-04-09T22:12:38.522Z,2.50
2023-04-09T22:15:09.705Z,2.60
2023-04-09T22:17:38.713Z,2.93
2023-04-09T22:20:09.581Z,3.03
2023-04-09T22:22:38.532Z,3.23
2023-04-09T22:25:07.951Z,3.00
2023-04-09T22:27:36.534Z,3.10
2023-04-09T22:30:05.098Z,2.60
2023-04-09T22:32:35.273Z,3.07
2023-04-09T22:35:03.700Z,3.20
2023-04-09T22:37:32.215Z,2.63
2023-04-09T22:40:00.536Z,2.90
2023-04-09T22:42:28.885Z,2.77
2023-04-09T22:44:57.319Z,3.37
2023-04-09T22:47:25.673Z,3.03
2023-04-09T22:49:57.267Z,3.33
2023-04-09T22:52:25.534Z,3.40
2023-04-09T22:54:53.851Z,3.47
2023-04-09T22:57:22.148Z,2.80
2023-04-09T22:59:50.613Z,2.80
2023-04-09T23:02:19.079Z,3.37
2023-04-09T23:04:47.467Z,3.03
2023-04-09T23:07:17.182Z,3.20
2023-04-09T23:09:46.436Z,3.17
2023-04-09T23:12:14.781Z,3.10
2023-04-09T23:14:43.068Z,3.03
2023-04-09T23:17:11.394Z,3.03
2023-04-09T23:19:39.714Z,3.50
2023-04-09T23:22:08.095Z,3.23
2023-04-09T23:24:37.830Z,3.47
2023-04-09T23:27:06.313Z,3.30
2023-04-09T23:29:34.932Z,3.47
2023-04-09T23:32:03.479Z,3.43
2023-04-09T23:34:31.822Z,3.30
2023-04-09T23:37:00.158Z,3.33
2023-04-09T23:39:28.731Z,3.40
2023-04-09T23:41:58.878Z,3.10
2023-04-09T23:44:28.039Z,3.37
2023-04-09T23:46:56.863Z,2.97
2023-04-09T23:49:25.358Z,3.63
2023-04-09T23:51:53.611Z,3.27
2023-04-09T23:54:22.018Z,3.60
2023-04-09T23:56:50.407Z,3.27
2023-04-09T23:59:20.059Z,3.43
